Open Text Price to Sales Ratio 2010-2024 | OTEX

Historical PS ratio values for Open Text (OTEX) over the last 10 years. The current P/S ratio for Open Text as of June 24, 2024 is . For more information on how our historical price data is adjusted see the Stock Price Adjustment Guide.
Open Text P/S Ratio Historical Data
Date Stock Price TTM Sales per Share Price to Sales Ratio
2024-06-24 29.39 1.35
2024-03-31 38.50 $21.70 1.77
2023-12-31 41.40 $20.99 1.97
2023-09-30 34.36 $18.68 1.84
2023-06-30 40.43 $16.59 2.44
2023-03-31 37.29 $14.40 2.59
2022-12-31 28.47 $13.05 2.18
2022-09-30 25.19 $12.94 1.95
2022-06-30 35.67 $12.83 2.78
2022-03-31 39.76 $12.78 3.11
2021-12-31 44.30 $12.57 3.52
2021-09-30 45.26 $12.49 3.62
2021-06-30 46.98 $12.40 3.79
2021-03-31 43.94 $12.17 3.61
2020-12-31 41.68 $12.12 3.44
2020-09-30 38.56 $11.82 3.26
2020-06-30 38.62 $11.44 3.38
2020-03-31 31.62 $11.17 2.83
2019-12-31 39.73 $10.84 3.66
2019-09-30 36.65 $10.73 3.42
2019-06-30 36.83 $10.64 3.46
2019-03-31 34.21 $10.69 3.20
2018-12-31 28.90 $10.59 2.73
2018-09-30 33.72 $10.61 3.18
2018-06-30 31.08 $10.54 2.95
2018-03-31 30.60 $10.31 2.97
2017-12-31 31.25 $9.99 3.13
2017-09-30 28.17 $9.43 2.99
2017-06-30 27.41 $9.03 3.03
2017-03-31 29.43 $8.42 3.50
2016-12-31 26.65 $7.99 3.33
2016-09-30 27.87 $7.71 3.61
2016-06-30 25.32 $7.47 3.39
2016-03-31 22.09 $7.45 2.96
2015-12-31 20.35 $7.46 2.73
2015-09-30 18.92 $7.46 2.54
2015-06-30 17.06 $7.53 2.27
2015-03-31 22.16 $7.62 2.91
2014-12-31 24.34 $7.61 3.20
2014-09-30 23.08 $7.23 3.19
2014-06-30 19.91 $6.75 2.95
2014-03-31 19.74 $6.17 3.20
2013-12-31 18.97 $5.79 3.28
2013-09-30 15.34 $5.76 2.67
2013-06-30 14.01 $5.78 2.43
2013-03-31 12.03 $5.61 2.14
2012-12-31 11.39 $5.42 2.10
2012-09-30 11.24 $5.30 2.12
2012-06-30 10.17 $5.14 1.98
2012-03-31 12.46 $5.06 2.46
2011-12-31 10.42 $4.94 2.11
2011-09-30 10.62 $4.72 2.25
2011-06-30 13.04 $4.43 2.94
2011-03-31 12.70 $4.25 2.99
2010-12-31 9.39 $4.05 2.32
2010-09-30 9.58 $3.98 2.41
2010-06-30 7.65 $3.97 1.93
2010-03-31 9.67 $3.88 2.49
2009-12-31 8.28 $3.86 2.15
Sector Industry Market Cap Revenue
Computer and Technology Computer Software $7.932B $4.485B
Open Text Corporation is engaged in development of innovative intranet, extranet and e-Business applications. Since creating one of the first search engines to index the World Wide Web, the company has remained at the forefront of Internet-based technologies. Open Text solutions allow individuals, teams, organizations, and global trading communities to collaborate on projects, share ideas and accelerate innovation to the fastest possible speed. Open Text Corporation is headquartered in Waterloo, Canada.
Stock Name Country Market Cap PE Ratio
Microsoft (MSFT) United States $3327.221B 38.76
Oracle (ORCL) United States $385.517B 31.30
Adobe (ADBE) United States $234.828B 37.60
Salesforce (CRM) United States $232.502B 34.62
Intuit (INTU) United States $174.404B 54.35
Synopsys (SNPS) United States $91.256B 62.89
Cadence Design Systems (CDNS) United States $84.217B 80.09
Autodesk (ADSK) United States $51.543B 46.99
Dassault Systemes SA (DASTY) France $49.790B 32.35
ANSYS (ANSS) United States $28.032B 51.87
MicroStrategy (MSTR) United States $24.338B 0.00
PTC (PTC) United States $21.259B 56.38
SS&C Technologies Holdings (SSNC) United States $15.614B 14.78
Manhattan Associates (MANH) United States $14.868B 78.91
Descartes Systems Group (DSGX) Canada $8.074B 67.54
Trend Micro (TMICY) Japan $5.671B 41.07
CommVault Systems (CVLT) United States $5.171B 84.50
Pegasystems (PEGA) United States $5.041B 44.57
ACI Worldwide (ACIW) United States $3.907B 18.71
Blackbaud (BLKB) United States $3.894B 33.52
Progress Software (PRGS) United States $2.117B 13.46
Verint Systems (VRNT) United States $2.114B 19.80
Sapiens (SPNS) Israel $1.825B 24.88
PROS Holdings (PRO) United States $1.349B 0.00
BlackBerry (BB) Canada $1.334B 0.00
Simulations Plus (SLP) United States $0.951B 69.96
Rand Worldwide (RWWI) United States $0.652B 0.00
Magic Software Enterprises (MGIC) Israel $0.502B 10.66
Canaan (CAN) China $0.289B 0.00
American Software (AMSWA) United States $0.288B 24.80
OptimizeRx (OPRX) United States $0.190B 0.00
Rigetti Computing (RGTI) United States $0.166B 0.00
Icad Inc (ICAD) United States $0.035B 0.00
Neonode (NEON) Sweden $0.035B 0.00
Wetouch Technology (WETH) $0.029B 0.00
NetSol Technologies (NTWK) United States $0.029B 0.00
Smith Micro Software (SMSI) United States $0.021B 0.00
Hanryu Holdings (HRYU) South Korea $0.015B 0.00
GSE Systems (GVP) United States $0.013B 0.00
SAP SE (SAP) Germany $0.000B 49.03